sensor_id;sensor_type;location;lat;lon;timestamp;temperature;humidity
49385;DHT22;36795;45.028;38.968;2023-08-31T00:00:02;24.70;40.80
49385;DHT22;36795;45.028;38.968;2023-08-31T00:02:51;24.70;41.00
49385;DHT22;36795;45.028;38.968;2023-08-31T00:05:42;24.60;41.00
49385;DHT22;36795;45.028;38.968;2023-08-31T00:08:28;24.60;41.20
49385;DHT22;36795;45.028;38.968;2023-08-31T00:11:14;24.50;41.40
49385;DHT22;36795;45.028;38.968;2023-08-31T00:14:00;24.50;41.60
49385;DHT22;36795;45.028;38.968;2023-08-31T00:16:46;24.40;41.80
49385;DHT22;36795;45.028;38.968;2023-08-31T00:19:33;24.40;42.00
49385;DHT22;36795;45.028;38.968;2023-08-31T00:22:19;24.40;42.20
49385;DHT22;36795;45.028;38.968;2023-08-31T00:25:05;24.50;42.10
49385;DHT22;36795;45.028;38.968;2023-08-31T00:27:54;24.60;42.00
49385;DHT22;36795;45.028;38.968;2023-08-31T00:30:40;24.60;42.00
49385;DHT22;36795;45.028;38.968;2023-08-31T00:33:26;24.60;42.10
49385;DHT22;36795;45.028;38.968;2023-08-31T00:36:12;24.60;42.20
49385;DHT22;36795;45.028;38.968;2023-08-31T00:39:02;24.50;42.30
49385;DHT22;36795;45.028;38.968;2023-08-31T00:41:52;24.40;42.50
49385;DHT22;36795;45.028;38.968;2023-08-31T00:44:39;24.40;42.80
49385;DHT22;36795;45.028;38.968;2023-08-31T00:47:24;24.40;42.90
49385;DHT22;36795;45.028;38.968;2023-08-31T00:50:12;24.30;43.00
49385;DHT22;36795;45.028;38.968;2023-08-31T00:52:57;24.30;43.20
49385;DHT22;36795;45.028;38.968;2023-08-31T00:55:47;24.30;43.30
49385;DHT22;36795;45.028;38.968;2023-08-31T00:58:33;24.30;43.60
49385;DHT22;36795;45.028;38.968;2023-08-31T01:04:27;24.30;43.90
49385;DHT22;36795;45.028;38.968;2023-08-31T01:07:29;24.30;44.20
49385;DHT22;36795;45.028;38.968;2023-08-31T01:13:24;24.30;44.50
49385;DHT22;36795;45.028;38.968;2023-08-31T01:16:11;24.30;44.60
49385;DHT22;36795;45.028;38.968;2023-08-31T01:19:00;24.30;44.70
49385;DHT22;36795;45.028;38.968;2023-08-31T01:21:48;24.30;44.70
49385;DHT22;36795;45.028;38.968;2023-08-31T01:24:38;24.30;44.80
49385;DHT22;36795;45.028;38.968;2023-08-31T01:27:24;24.20;45.00
49385;DHT22;36795;45.028;38.968;2023-08-31T01:30:11;24.30;45.30
49385;DHT22;36795;45.028;38.968;2023-08-31T01:32:57;24.20;45.60
49385;DHT22;36795;45.028;38.968;2023-08-31T01:35:46;24.20;45.90
49385;DHT22;36795;45.028;38.968;2023-08-31T01:38:35;24.20;46.10
49385;DHT22;36795;45.028;38.968;2023-08-31T01:41:26;24.10;46.20
49385;DHT22;36795;45.028;38.968;2023-08-31T01:44:16;24.10;46.40
49385;DHT22;36795;45.028;38.968;2023-08-31T01:47:04;24.20;46.70
49385;DHT22;36795;45.028;38.968;2023-08-31T01:49:53;24.20;47.00
49385;DHT22;36795;45.028;38.968;2023-08-31T01:52:42;24.10;47.10
49385;DHT22;36795;45.028;38.968;2023-08-31T01:55:28;24.10;47.40
49385;DHT22;36795;45.028;38.968;2023-08-31T01:58:14;24.00;47.60
49385;DHT22;36795;45.028;38.968;2023-08-31T02:01:00;24.00;47.80
49385;DHT22;36795;45.028;38.968;2023-08-31T02:03:47;24.00;47.90
49385;DHT22;36795;45.028;38.968;2023-08-31T02:06:32;24.00;48.00
49385;DHT22;36795;45.028;38.968;2023-08-31T02:09:18;24.00;48.10
49385;DHT22;36795;45.028;38.968;2023-08-31T02:12:04;24.00;48.20
49385;DHT22;36795;45.028;38.968;2023-08-31T02:14:51;24.00;48.30
49385;DHT22;36795;45.028;38.968;2023-08-31T02:17:37;24.00;48.40
49385;DHT22;36795;45.028;38.968;2023-08-31T02:20:23;23.90;48.40
49385;DHT22;36795;45.028;38.968;2023-08-31T02:23:10;23.90;48.40
49385;DHT22;36795;45.028;38.968;2023-08-31T02:25:57;23.90;48.40
49385;DHT22;36795;45.028;38.968;2023-08-31T02:28:43;23.90;48.40
49385;DHT22;36795;45.028;38.968;2023-08-31T02:31:29;23.90;48.60
49385;DHT22;36795;45.028;38.968;2023-08-31T02:34:15;23.90;48.70
49385;DHT22;36795;45.028;38.968;2023-08-31T02:37:02;23.80;48.80
49385;DHT22;36795;45.028;38.968;2023-08-31T02:39:47;23.80;48.90
49385;DHT22;36795;45.028;38.968;2023-08-31T02:42:33;23.80;49.40
49385;DHT22;36795;45.028;38.968;2023-08-31T02:45:19;23.80;50.60
49385;DHT22;36795;45.028;38.968;2023-08-31T02:48:10;23.70;51.60
49385;DHT22;36795;45.028;38.968;2023-08-31T02:50:57;23.70;52.70
49385;DHT22;36795;45.028;38.968;2023-08-31T02:53:47;23.60;53.30
49385;DHT22;36795;45.028;38.968;2023-08-31T02:56:32;23.60;53.90
49385;DHT22;36795;45.028;38.968;2023-08-31T02:59:18;23.60;54.30
49385;DHT22;36795;45.028;38.968;2023-08-31T03:02:04;23.50;54.60
49385;DHT22;36795;45.028;38.968;2023-08-31T03:04:50;23.50;54.90
49385;DHT22;36795;45.028;38.968;2023-08-31T03:07:36;23.50;55.20
49385;DHT22;36795;45.028;38.968;2023-08-31T03:10:23;23.50;55.50
49385;DHT22;36795;45.028;38.968;2023-08-31T03:13:08;23.50;55.60
49385;DHT22;36795;45.028;38.968;2023-08-31T03:15:56;23.40;55.60
49385;DHT22;36795;45.028;38.968;2023-08-31T03:18:43;23.40;55.80
49385;DHT22;36795;45.028;38.968;2023-08-31T03:21:29;23.50;55.90
49385;DHT22;36795;45.028;38.968;2023-08-31T03:24:15;23.50;55.80
49385;DHT22;36795;45.028;38.968;2023-08-31T03:27:01;23.50;55.90
49385;DHT22;36795;45.028;38.968;2023-08-31T03:29:48;23.50;55.90
49385;DHT22;36795;45.028;38.968;2023-08-31T03:32:34;23.50;56.00
49385;DHT22;36795;45.028;38.968;2023-08-31T03:35:20;23.40;56.10
49385;DHT22;36795;45.028;38.968;2023-08-31T03:38:08;23.50;56.30
49385;DHT22;36795;45.028;38.968;2023-08-31T03:40:55;23.60;56.10
49385;DHT22;36795;45.028;38.968;2023-08-31T03:43:41;23.60;56.10
49385;DHT22;36795;45.028;38.968;2023-08-31T03:46:27;23.60;56.20
49385;DHT22;36795;45.028;38.968;2023-08-31T03:49:13;23.60;56.20
49385;DHT22;36795;45.028;38.968;2023-08-31T03:51:59;23.70;56.30
49385;DHT22;36795;45.028;38.968;2023-08-31T03:54:46;23.70;56.10
49385;DHT22;36795;45.028;38.968;2023-08-31T03:57:32;23.80;56.20
49385;DHT22;36795;45.028;38.968;2023-08-31T04:00:20;23.90;55.80
49385;DHT22;36795;45.028;38.968;2023-08-31T04:03:06;23.90;55.60
49385;DHT22;36795;45.028;38.968;2023-08-31T04:05:56;24.00;55.30
49385;DHT22;36795;45.028;38.968;2023-08-31T04:08:42;24.00;55.30
49385;DHT22;36795;45.028;38.968;2023-08-31T04:11:28;24.10;55.10
49385;DHT22;36795;45.028;38.968;2023-08-31T04:14:15;24.10;55.10
49385;DHT22;36795;45.028;38.968;2023-08-31T04:17:03;24.20;54.90
49385;DHT22;36795;45.028;38.968;2023-08-31T04:19:50;24.30;54.60
49385;DHT22;36795;45.028;38.968;2023-08-31T04:22:37;24.40;54.40
49385;DHT22;36795;45.028;38.968;2023-08-31T04:25:23;24.50;54.20
49385;DHT22;36795;45.028;38.968;2023-08-31T04:28:09;24.50;54.00
49385;DHT22;36795;45.028;38.968;2023-08-31T04:30:55;24.60;53.90
49385;DHT22;36795;45.028;38.968;2023-08-31T04:33:42;24.80;53.80
49385;DHT22;36795;45.028;38.968;2023-08-31T04:36:28;24.90;53.80
49385;DHT22;36795;45.028;38.968;2023-08-31T04:39:14;25.00;53.60
49385;DHT22;36795;45.028;38.968;2023-08-31T04:42:00;25.00;53.60
49385;DHT22;36795;45.028;38.968;2023-08-31T04:44:46;25.10;53.50
49385;DHT22;36795;45.028;38.968;2023-08-31T04:47:32;25.10;53.30
49385;DHT22;36795;45.028;38.968;2023-08-31T04:50:18;25.20;53.30
49385;DHT22;36795;45.028;38.968;2023-08-31T04:53:04;25.20;53.20
49385;DHT22;36795;45.028;38.968;2023-08-31T04:55:50;25.30;52.90
49385;DHT22;36795;45.028;38.968;2023-08-31T04:58:36;25.50;53.00
49385;DHT22;36795;45.028;38.968;2023-08-31T05:01:23;25.50;52.60
49385;DHT22;36795;45.028;38.968;2023-08-31T05:04:08;25.50;52.60
49385;DHT22;36795;45.028;38.968;2023-08-31T05:06:54;25.60;52.30
49385;DHT22;36795;45.028;38.968;2023-08-31T05:09:40;25.70;52.30
49385;DHT22;36795;45.028;38.968;2023-08-31T05:12:26;25.80;52.00
49385;DHT22;36795;45.028;38.968;2023-08-31T05:15:12;25.90;51.90
49385;DHT22;36795;45.028;38.968;2023-08-31T05:17:58;26.00;51.60
49385;DHT22;36795;45.028;38.968;2023-08-31T05:20:47;26.10;51.30
49385;DHT22;36795;45.028;38.968;2023-08-31T05:23:34;26.30;51.20
49385;DHT22;36795;45.028;38.968;2023-08-31T05:26:20;26.50;51.10
49385;DHT22;36795;45.028;38.968;2023-08-31T05:29:06;26.50;50.70
49385;DHT22;36795;45.028;38.968;2023-08-31T05:31:52;26.60;50.50
49385;DHT22;36795;45.028;38.968;2023-08-31T05:34:39;26.80;50.30
49385;DHT22;36795;45.028;38.968;2023-08-31T05:37:25;26.80;50.20
49385;DHT22;36795;45.028;38.968;2023-08-31T05:40:11;27.00;50.10
49385;DHT22;36795;45.028;38.968;2023-08-31T05:42:57;27.20;49.80
49385;DHT22;36795;45.028;38.968;2023-08-31T05:45:43;27.30;49.60
49385;DHT22;36795;45.028;38.968;2023-08-31T05:48:30;27.50;49.80
49385;DHT22;36795;45.028;38.968;2023-08-31T05:51:17;27.50;49.80
49385;DHT22;36795;45.028;38.968;2023-08-31T05:54:03;27.60;50.10
49385;DHT22;36795;45.028;38.968;2023-08-31T05:56:49;27.70;49.80
49385;DHT22;36795;45.028;38.968;2023-08-31T05:59:34;27.80;49.10
49385;DHT22;36795;45.028;38.968;2023-08-31T06:02:21;27.90;48.70
49385;DHT22;36795;45.028;38.968;2023-08-31T06:05:07;28.00;48.20
49385;DHT22;36795;45.028;38.968;2023-08-31T06:07:53;28.20;48.10
49385;DHT22;36795;45.028;38.968;2023-08-31T06:10:40;28.40;48.10
49385;DHT22;36795;45.028;38.968;2023-08-31T06:13:25;28.50;47.90
49385;DHT22;36795;45.028;38.968;2023-08-31T06:16:12;28.60;47.60
49385;DHT22;36795;45.028;38.968;2023-08-31T06:18:57;28.70;47.30
49385;DHT22;36795;45.028;38.968;2023-08-31T06:21:44;28.90;47.00
49385;DHT22;36795;45.028;38.968;2023-08-31T06:24:30;29.10;46.60
49385;DHT22;36795;45.028;38.968;2023-08-31T06:27:16;29.30;46.20
49385;DHT22;36795;45.028;38.968;2023-08-31T06:30:03;29.60;45.40
49385;DHT22;36795;45.028;38.968;2023-08-31T06:32:50;30.20;44.60
49385;DHT22;36795;45.028;38.968;2023-08-31T06:35:36;31.00;42.70
49385;DHT22;36795;45.028;38.968;2023-08-31T06:38:23;31.70;41.30
49385;DHT22;36795;45.028;38.968;2023-08-31T06:41:09;32.30;40.50
49385;DHT22;36795;45.028;38.968;2023-08-31T06:43:55;33.10;39.60
49385;DHT22;36795;45.028;38.968;2023-08-31T06:46:41;34.00;38.60
49385;DHT22;36795;45.028;38.968;2023-08-31T06:49:27;34.90;37.30
49385;DHT22;36795;45.028;38.968;2023-08-31T06:52:13;35.70;36.20
49385;DHT22;36795;45.028;38.968;2023-08-31T06:54:59;36.00;35.60
49385;DHT22;36795;45.028;38.968;2023-08-31T06:57:45;36.30;34.90
49385;DHT22;36795;45.028;38.968;2023-08-31T07:00:32;36.50;33.90
49385;DHT22;36795;45.028;38.968;2023-08-31T07:03:20;36.90;34.40
49385;DHT22;36795;45.028;38.968;2023-08-31T07:06:06;37.80;32.80
49385;DHT22;36795;45.028;38.968;2023-08-31T07:08:52;38.20;32.30
49385;DHT22;36795;45.028;38.968;2023-08-31T07:11:38;38.40;32.00
49385;DHT22;36795;45.028;38.968;2023-08-31T07:14:24;38.50;31.60
49385;DHT22;36795;45.028;38.968;2023-08-31T07:17:10;38.20;31.90
49385;DHT22;36795;45.028;38.968;2023-08-31T07:19:56;37.70;32.30
49385;DHT22;36795;45.028;38.968;2023-08-31T07:22:42;37.50;32.80
49385;DHT22;36795;45.028;38.968;2023-08-31T07:25:28;37.10;33.40
49385;DHT22;36795;45.028;38.968;2023-08-31T07:28:15;36.00;34.70
49385;DHT22;36795;45.028;38.968;2023-08-31T07:31:02;35.10;36.00
49385;DHT22;36795;45.028;38.968;2023-08-31T07:33:49;34.70;36.50
49385;DHT22;36795;45.028;38.968;2023-08-31T07:36:35;34.90;36.50
49385;DHT22;36795;45.028;38.968;2023-08-31T07:39:21;35.00;36.30
49385;DHT22;36795;45.028;38.968;2023-08-31T07:42:06;35.20;36.20
49385;DHT22;36795;45.028;38.968;2023-08-31T07:44:52;35.20;35.90
49385;DHT22;36795;45.028;38.968;2023-08-31T07:47:38;35.00;36.30
49385;DHT22;36795;45.028;38.968;2023-08-31T07:50:24;34.80;36.80
49385;DHT22;36795;45.028;38.968;2023-08-31T07:53:11;34.50;37.40
49385;DHT22;36795;45.028;38.968;2023-08-31T07:55:58;34.40;37.40
49385;DHT22;36795;45.028;38.968;2023-08-31T07:58:44;34.40;37.40
49385;DHT22;36795;45.028;38.968;2023-08-31T08:01:30;34.40;37.10
49385;DHT22;36795;45.028;38.968;2023-08-31T08:04:17;34.30;37.10
49385;DHT22;36795;45.028;38.968;2023-08-31T08:07:04;34.20;37.00
49385;DHT22;36795;45.028;38.968;2023-08-31T08:09:51;34.30;37.10
49385;DHT22;36795;45.028;38.968;2023-08-31T08:12:37;34.60;37.20
49385;DHT22;36795;45.028;38.968;2023-08-31T08:15:25;34.90;36.90
49385;DHT22;36795;45.028;38.968;2023-08-31T08:18:11;35.10;36.90
49385;DHT22;36795;45.028;38.968;2023-08-31T08:20:57;35.30;36.90
49385;DHT22;36795;45.028;38.968;2023-08-31T08:23:43;35.80;36.80
49385;DHT22;36795;45.028;38.968;2023-08-31T08:26:29;36.70;35.50
49385;DHT22;36795;45.028;38.968;2023-08-31T08:29:15;37.70;34.40
49385;DHT22;36795;45.028;38.968;2023-08-31T08:32:01;37.70;34.30
49385;DHT22;36795;45.028;38.968;2023-08-31T08:34:49;37.80;34.00
49385;DHT22;36795;45.028;38.968;2023-08-31T08:37:35;37.70;34.20
49385;DHT22;36795;45.028;38.968;2023-08-31T08:40:22;36.90;34.70
49385;DHT22;36795;45.028;38.968;2023-08-31T08:43:08;36.30;35.50
49385;DHT22;36795;45.028;38.968;2023-08-31T08:45:58;36.00;35.80
49385;DHT22;36795;45.028;38.968;2023-08-31T08:48:47;35.50;36.60
49385;DHT22;36795;45.028;38.968;2023-08-31T08:51:33;35.10;37.90
49385;DHT22;36795;45.028;38.968;2023-08-31T08:54:22;34.80;37.70
49385;DHT22;36795;45.028;38.968;2023-08-31T08:57:08;34.70;37.90
49385;DHT22;36795;45.028;38.968;2023-08-31T08:59:54;34.70;38.00
49385;DHT22;36795;45.028;38.968;2023-08-31T09:02:40;34.90;37.90
49385;DHT22;36795;45.028;38.968;2023-08-31T09:05:26;35.30;37.60
49385;DHT22;36795;45.028;38.968;2023-08-31T09:08:12;35.90;37.20
49385;DHT22;36795;45.028;38.968;2023-08-31T09:10:59;36.10;37.30
49385;DHT22;36795;45.028;38.968;2023-08-31T09:13:46;36.20;36.90
49385;DHT22;36795;45.028;38.968;2023-08-31T09:16:32;36.10;36.70
49385;DHT22;36795;45.028;38.968;2023-08-31T09:19:24;36.00;36.80
49385;DHT22;36795;45.028;38.968;2023-08-31T09:22:12;35.80;37.30
49385;DHT22;36795;45.028;38.968;2023-08-31T09:24:58;35.60;37.20
49385;DHT22;36795;45.028;38.968;2023-08-31T09:27:45;35.60;37.00
49385;DHT22;36795;45.028;38.968;2023-08-31T09:30:35;35.40;37.00
49385;DHT22;36795;45.028;38.968;2023-08-31T09:33:22;35.40;37.10
49385;DHT22;36795;45.028;38.968;2023-08-31T09:36:08;35.50;37.00
49385;DHT22;36795;45.028;38.968;2023-08-31T09:38:58;35.70;36.80
49385;DHT22;36795;45.028;38.968;2023-08-31T09:41:56;35.70;37.50
49385;DHT22;36795;45.028;38.968;2023-08-31T09:44:43;35.60;37.60
49385;DHT22;36795;45.028;38.968;2023-08-31T09:47:30;35.40;37.80
49385;DHT22;36795;45.028;38.968;2023-08-31T09:50:17;35.30;37.90
49385;DHT22;36795;45.028;38.968;2023-08-31T09:53:05;35.30;37.90
49385;DHT22;36795;45.028;38.968;2023-08-31T09:55:52;35.30;38.70
49385;DHT22;36795;45.028;38.968;2023-08-31T09:58:39;35.20;39.30
49385;DHT22;36795;45.028;38.968;2023-08-31T10:01:26;35.10;39.60
49385;DHT22;36795;45.028;38.968;2023-08-31T10:04:12;35.00;39.70
49385;DHT22;36795;45.028;38.968;2023-08-31T10:06:58;34.90;40.00
49385;DHT22;36795;45.028;38.968;2023-08-31T10:09:45;34.90;40.20
49385;DHT22;36795;45.028;38.968;2023-08-31T10:12:32;34.90;40.30
49385;DHT22;36795;45.028;38.968;2023-08-31T10:15:20;35.00;40.70
49385;DHT22;36795;45.028;38.968;2023-08-31T10:18:06;35.10;40.30
49385;DHT22;36795;45.028;38.968;2023-08-31T10:20:53;35.10;40.20
49385;DHT22;36795;45.028;38.968;2023-08-31T10:23:45;35.20;40.30
49385;DHT22;36795;45.028;38.968;2023-08-31T10:26:31;35.20;40.10
49385;DHT22;36795;45.028;38.968;2023-08-31T10:29:27;35.30;39.70
49385;DHT22;36795;45.028;38.968;2023-08-31T10:32:18;35.20;39.30
49385;DHT22;36795;45.028;38.968;2023-08-31T10:35:05;35.10;39.70
49385;DHT22;36795;45.028;38.968;2023-08-31T10:37:52;35.10;39.90
49385;DHT22;36795;45.028;38.968;2023-08-31T10:40:38;35.20;40.00
49385;DHT22;36795;45.028;38.968;2023-08-31T10:43:24;35.30;39.80
49385;DHT22;36795;45.028;38.968;2023-08-31T10:46:30;35.30;39.60
49385;DHT22;36795;45.028;38.968;2023-08-31T10:49:19;35.40;39.50
49385;DHT22;36795;45.028;38.968;2023-08-31T10:52:19;35.50;39.20
49385;DHT22;36795;45.028;38.968;2023-08-31T10:55:07;35.70;38.80
49385;DHT22;36795;45.028;38.968;2023-08-31T10:57:53;35.90;38.60
49385;DHT22;36795;45.028;38.968;2023-08-31T11:00:52;36.10;38.70
49385;DHT22;36795;45.028;38.968;2023-08-31T11:03:58;36.20;38.40
49385;DHT22;36795;45.028;38.968;2023-08-31T11:06:44;36.30;38.40
49385;DHT22;36795;45.028;38.968;2023-08-31T11:09:30;36.30;38.00
49385;DHT22;36795;45.028;38.968;2023-08-31T11:12:16;36.10;38.10
49385;DHT22;36795;45.028;38.968;2023-08-31T11:15:02;36.10;38.20
49385;DHT22;36795;45.028;38.968;2023-08-31T11:17:54;36.10;38.20
49385;DHT22;36795;45.028;38.968;2023-08-31T11:20:40;36.20;38.30
49385;DHT22;36795;45.028;38.968;2023-08-31T11:23:26;36.20;38.40
49385;DHT22;36795;45.028;38.968;2023-08-31T11:26:12;36.20;38.10
49385;DHT22;36795;45.028;38.968;2023-08-31T11:28:58;36.20;38.20
49385;DHT22;36795;45.028;38.968;2023-08-31T11:31:44;36.20;38.60
49385;DHT22;36795;45.028;38.968;2023-08-31T11:34:31;36.30;38.30
49385;DHT22;36795;45.028;38.968;2023-08-31T11:37:17;36.40;38.20
49385;DHT22;36795;45.028;38.968;2023-08-31T11:40:06;36.50;37.70
49385;DHT22;36795;45.028;38.968;2023-08-31T11:42:52;36.60;38.20
49385;DHT22;36795;45.028;38.968;2023-08-31T11:45:39;36.80;37.90
49385;DHT22;36795;45.028;38.968;2023-08-31T11:48:25;37.20;37.80
49385;DHT22;36795;45.028;38.968;2023-08-31T11:51:13;37.40;37.50
49385;DHT22;36795;45.028;38.968;2023-08-31T11:54:02;37.80;37.20
49385;DHT22;36795;45.028;38.968;2023-08-31T11:56:50;39.30;35.60
49385;DHT22;36795;45.028;38.968;2023-08-31T11:59:38;41.20;33.70
49385;DHT22;36795;45.028;38.968;2023-08-31T12:02:24;43.10;32.10
49385;DHT22;36795;45.028;38.968;2023-08-31T12:05:10;44.70;30.90
49385;DHT22;36795;45.028;38.968;2023-08-31T12:07:56;46.40;29.60
49385;DHT22;36795;45.028;38.968;2023-08-31T12:10:43;47.40;29.20
49385;DHT22;36795;45.028;38.968;2023-08-31T12:13:29;48.10;28.80
49385;DHT22;36795;45.028;38.968;2023-08-31T12:16:15;48.80;28.50
49385;DHT22;36795;45.028;38.968;2023-08-31T12:19:03;49.10;28.30
49385;DHT22;36795;45.028;38.968;2023-08-31T12:21:52;49.00;28.00
49385;DHT22;36795;45.028;38.968;2023-08-31T12:24:42;48.70;28.10
49385;DHT22;36795;45.028;38.968;2023-08-31T12:27:28;48.20;28.40
49385;DHT22;36795;45.028;38.968;2023-08-31T12:30:15;46.90;28.70
49385;DHT22;36795;45.028;38.968;2023-08-31T12:33:01;44.90;29.80
49385;DHT22;36795;45.028;38.968;2023-08-31T12:35:47;43.10;31.20
49385;DHT22;36795;45.028;38.968;2023-08-31T12:38:34;41.80;32.40
49385;DHT22;36795;45.028;38.968;2023-08-31T12:41:20;41.10;33.20
49385;DHT22;36795;45.028;38.968;2023-08-31T12:44:07;41.00;33.30
49385;DHT22;36795;45.028;38.968;2023-08-31T12:46:53;41.20;33.30
49385;DHT22;36795;45.028;38.968;2023-08-31T12:49:40;41.10;33.20
49385;DHT22;36795;45.028;38.968;2023-08-31T12:52:26;40.80;33.40
49385;DHT22;36795;45.028;38.968;2023-08-31T12:55:13;40.40;33.90
49385;DHT22;36795;45.028;38.968;2023-08-31T12:57:59;40.00;34.30
49385;DHT22;36795;45.028;38.968;2023-08-31T13:00:47;39.60;34.70
49385;DHT22;36795;45.028;38.968;2023-08-31T13:03:34;39.20;35.50
49385;DHT22;36795;45.028;38.968;2023-08-31T13:06:21;38.80;36.20
49385;DHT22;36795;45.028;38.968;2023-08-31T13:09:07;38.60;37.00
49385;DHT22;36795;45.028;38.968;2023-08-31T13:11:54;38.60;37.10
49385;DHT22;36795;45.028;38.968;2023-08-31T13:14:40;38.50;36.90
49385;DHT22;36795;45.028;38.968;2023-08-31T13:17:27;38.60;36.90
49385;DHT22;36795;45.028;38.968;2023-08-31T13:20:13;38.50;36.70
49385;DHT22;36795;45.028;38.968;2023-08-31T13:22:59;38.30;37.10
49385;DHT22;36795;45.028;38.968;2023-08-31T13:25:45;38.00;37.60
49385;DHT22;36795;45.028;38.968;2023-08-31T13:28:32;37.80;38.00
49385;DHT22;36795;45.028;38.968;2023-08-31T13:31:17;37.80;38.30
49385;DHT22;36795;45.028;38.968;2023-08-31T13:34:04;37.80;38.20
49385;DHT22;36795;45.028;38.968;2023-08-31T13:36:51;38.20;37.60
49385;DHT22;36795;45.028;38.968;2023-08-31T13:39:37;38.70;37.30
49385;DHT22;36795;45.028;38.968;2023-08-31T13:42:25;38.90;37.20
49385;DHT22;36795;45.028;38.968;2023-08-31T13:45:11;38.40;37.60
49385;DHT22;36795;45.028;38.968;2023-08-31T13:48:00;38.10;38.00
49385;DHT22;36795;45.028;38.968;2023-08-31T13:50:47;37.90;38.20
49385;DHT22;36795;45.028;38.968;2023-08-31T13:53:33;37.80;38.40
49385;DHT22;36795;45.028;38.968;2023-08-31T13:56:20;37.90;38.30
49385;DHT22;36795;45.028;38.968;2023-08-31T13:59:06;38.30;38.00
49385;DHT22;36795;45.028;38.968;2023-08-31T14:01:52;39.10;37.30
49385;DHT22;36795;45.028;38.968;2023-08-31T14:04:38;40.00;36.40
49385;DHT22;36795;45.028;38.968;2023-08-31T14:07:24;40.90;34.90
49385;DHT22;36795;45.028;38.968;2023-08-31T14:10:11;41.90;33.90
49385;DHT22;36795;45.028;38.968;2023-08-31T14:12:57;42.60;33.30
49385;DHT22;36795;45.028;38.968;2023-08-31T14:15:46;43.20;32.60
49385;DHT22;36795;45.028;38.968;2023-08-31T14:18:32;43.50;32.50
49385;DHT22;36795;45.028;38.968;2023-08-31T14:21:18;43.40;32.10
49385;DHT22;36795;45.028;38.968;2023-08-31T14:24:06;43.30;32.40
49385;DHT22;36795;45.028;38.968;2023-08-31T14:26:52;43.20;32.50
49385;DHT22;36795;45.028;38.968;2023-08-31T14:29:39;42.90;33.00
49385;DHT22;36795;45.028;38.968;2023-08-31T14:32:25;42.50;33.20
49385;DHT22;36795;45.028;38.968;2023-08-31T14:35:11;42.30;33.20
49385;DHT22;36795;45.028;38.968;2023-08-31T14:37:57;42.20;33.60
49385;DHT22;36795;45.028;38.968;2023-08-31T14:40:43;42.10;33.70
49385;DHT22;36795;45.028;38.968;2023-08-31T14:43:30;42.10;33.80
49385;DHT22;36795;45.028;38.968;2023-08-31T14:46:16;42.10;33.60
49385;DHT22;36795;45.028;38.968;2023-08-31T14:49:02;41.80;33.70
49385;DHT22;36795;45.028;38.968;2023-08-31T14:51:49;41.40;34.20
49385;DHT22;36795;45.028;38.968;2023-08-31T14:54:35;41.10;34.40
49385;DHT22;36795;45.028;38.968;2023-08-31T14:57:21;40.80;34.80
49385;DHT22;36795;45.028;38.968;2023-08-31T15:00:08;40.10;35.60
49385;DHT22;36795;45.028;38.968;2023-08-31T15:02:54;39.10;36.50
49385;DHT22;36795;45.028;38.968;2023-08-31T15:05:40;38.30;37.40
49385;DHT22;36795;45.028;38.968;2023-08-31T15:08:39;37.50;37.90
49385;DHT22;36795;45.028;38.968;2023-08-31T15:11:29;37.00;38.70
49385;DHT22;36795;45.028;38.968;2023-08-31T15:14:14;36.50;39.40
49385;DHT22;36795;45.028;38.968;2023-08-31T15:17:01;36.10;40.20
49385;DHT22;36795;45.028;38.968;2023-08-31T15:19:47;35.80;40.80
49385;DHT22;36795;45.028;38.968;2023-08-31T15:22:37;35.60;41.10
49385;DHT22;36795;45.028;38.968;2023-08-31T15:25:23;35.40;42.10
49385;DHT22;36795;45.028;38.968;2023-08-31T15:28:09;35.20;42.40
49385;DHT22;36795;45.028;38.968;2023-08-31T15:30:54;34.90;42.90
49385;DHT22;36795;45.028;38.968;2023-08-31T15:33:41;34.70;43.30
49385;DHT22;36795;45.028;38.968;2023-08-31T15:36:27;34.50;43.40
49385;DHT22;36795;45.028;38.968;2023-08-31T15:39:14;34.30;43.80
49385;DHT22;36795;45.028;38.968;2023-08-31T15:42:00;34.20;44.20
49385;DHT22;36795;45.028;38.968;2023-08-31T15:44:46;34.00;44.20
49385;DHT22;36795;45.028;38.968;2023-08-31T15:47:31;33.90;44.50
49385;DHT22;36795;45.028;38.968;2023-08-31T15:50:18;33.70;44.70
49385;DHT22;36795;45.028;38.968;2023-08-31T15:53:04;33.70;45.00
49385;DHT22;36795;45.028;38.968;2023-08-31T15:55:50;33.50;45.00
49385;DHT22;36795;45.028;38.968;2023-08-31T15:58:36;33.50;45.40
49385;DHT22;36795;45.028;38.968;2023-08-31T16:01:22;33.30;45.50
49385;DHT22;36795;45.028;38.968;2023-08-31T16:04:09;33.20;45.70
49385;DHT22;36795;45.028;38.968;2023-08-31T16:06:55;33.10;45.70
49385;DHT22;36795;45.028;38.968;2023-08-31T16:09:41;33.00;45.90
49385;DHT22;36795;45.028;38.968;2023-08-31T16:12:27;32.90;46.20
49385;DHT22;36795;45.028;38.968;2023-08-31T16:15:13;32.90;46.50
49385;DHT22;36795;45.028;38.968;2023-08-31T16:17:59;32.80;46.70
49385;DHT22;36795;45.028;38.968;2023-08-31T16:20:46;32.70;46.70
49385;DHT22;36795;45.028;38.968;2023-08-31T16:23:32;32.70;46.80
49385;DHT22;36795;45.028;38.968;2023-08-31T16:26:18;32.70;46.80
49385;DHT22;36795;45.028;38.968;2023-08-31T16:29:04;32.60;46.90
49385;DHT22;36795;45.028;38.968;2023-08-31T16:31:50;32.60;47.10
49385;DHT22;36795;45.028;38.968;2023-08-31T16:34:37;32.50;47.40
49385;DHT22;36795;45.028;38.968;2023-08-31T16:37:24;32.40;47.70
49385;DHT22;36795;45.028;38.968;2023-08-31T16:40:14;32.40;47.90
49385;DHT22;36795;45.028;38.968;2023-08-31T16:43:00;32.30;48.20
49385;DHT22;36795;45.028;38.968;2023-08-31T16:45:46;32.30;48.30
49385;DHT22;36795;45.028;38.968;2023-08-31T16:48:32;32.20;48.40
49385;DHT22;36795;45.028;38.968;2023-08-31T16:51:21;32.10;48.80
49385;DHT22;36795;45.028;38.968;2023-08-31T16:54:07;32.10;49.00
49385;DHT22;36795;45.028;38.968;2023-08-31T16:56:53;32.00;49.30
49385;DHT22;36795;45.028;38.968;2023-08-31T16:59:40;31.90;49.50
49385;DHT22;36795;45.028;38.968;2023-08-31T17:02:26;31.80;49.70
49385;DHT22;36795;45.028;38.968;2023-08-31T17:05:13;31.70;49.90
49385;DHT22;36795;45.028;38.968;2023-08-31T17:08:00;31.70;50.20
49385;DHT22;36795;45.028;38.968;2023-08-31T17:10:46;31.60;50.30
49385;DHT22;36795;45.028;38.968;2023-08-31T17:13:33;31.50;50.50
49385;DHT22;36795;45.028;38.968;2023-08-31T17:16:19;31.50;50.70
49385;DHT22;36795;45.028;38.968;2023-08-31T17:19:04;31.50;50.90
49385;DHT22;36795;45.028;38.968;2023-08-31T17:21:51;31.40;51.10